createdAt,value
2023-02-19T00:01:54.623Z,7.73
2023-02-19T00:04:23.848Z,9.67
2023-02-19T00:06:52.341Z,5.33
2023-02-19T00:09:21.540Z,3.83
2023-02-19T00:11:51.447Z,7.20
2023-02-19T00:14:21.665Z,7.47
2023-02-19T00:16:50.471Z,7.47
2023-02-19T00:19:19.660Z,4.93
2023-02-19T00:21:48.101Z,3.57
2023-02-19T00:24:17.182Z,6.97
2023-02-19T00:26:46.239Z,5.73
2023-02-19T00:29:16.815Z,8.03
2023-02-19T00:31:45.300Z,4.70
2023-02-19T00:34:14.421Z,9.87
2023-02-19T00:36:43.456Z,6.40
2023-02-19T00:39:15.406Z,11.07
2023-02-19T00:41:44.319Z,4.30
2023-02-19T00:44:13.497Z,9.57
2023-02-19T00:46:44.177Z,6.90
2023-02-19T00:49:15.578Z,6.53
2023-02-19T00:51:43.959Z,8.90
2023-02-19T00:54:12.910Z,6.47
2023-02-19T00:56:41.634Z,4.30
2023-02-19T00:59:10.059Z,6.87
2023-02-19T01:01:38.449Z,8.00
2023-02-19T01:04:08.328Z,5.50
2023-02-19T01:06:36.830Z,4.03
2023-02-19T01:09:05.663Z,4.80
2023-02-19T01:11:34.050Z,5.37
2023-02-19T01:14:03.466Z,6.63
2023-02-19T01:16:33.056Z,9.70
2023-02-19T01:19:01.811Z,10.93
2023-02-19T01:21:32.262Z,5.70
2023-02-19T01:24:01.110Z,6.33
2023-02-19T01:26:30.511Z,6.60
2023-02-19T01:28:59.197Z,6.10
2023-02-19T01:31:27.854Z,8.30
2023-02-19T01:33:57.386Z,9.13
2023-02-19T01:36:26.123Z,7.70
2023-02-19T01:38:55.860Z,11.73
2023-02-19T01:41:24.855Z,9.20
2023-02-19T01:44:01.222Z,5.00
2023-02-19T01:46:29.930Z,12.20
2023-02-19T01:49:00.666Z,5.00
2023-02-19T01:51:29.615Z,9.93
2023-02-19T01:54:00.976Z,6.87
2023-02-19T01:56:30.933Z,9.93
2023-02-19T01:58:59.341Z,5.30
2023-02-19T02:01:27.777Z,7.37
2023-02-19T02:03:56.151Z,6.43
2023-02-19T02:06:26.125Z,4.83
2023-02-19T02:09:14.318Z,11.90
2023-02-19T02:11:46.493Z,3.77
2023-02-19T02:14:15.024Z,4.13
2023-02-19T02:16:48.042Z,4.87
2023-02-19T02:19:28.173Z,4.97
2023-02-19T02:22:08.902Z,6.77
2023-02-19T02:24:52.201Z,5.23
2023-02-19T02:27:38.474Z,6.70
2023-02-19T02:30:19.072Z,4.20
2023-02-19T02:32:53.468Z,3.60
2023-02-19T02:35:22.902Z,3.80
2023-02-19T02:37:51.642Z,3.90
2023-02-19T02:40:20.659Z,4.93
2023-02-19T02:42:49.425Z,4.03
2023-02-19T02:45:37.588Z,4.23
2023-02-19T02:48:09.271Z,3.27
2023-02-19T02:50:39.654Z,3.80
2023-02-19T02:53:28.376Z,3.90
2023-02-19T02:55:56.803Z,4.33
2023-02-19T02:58:26.180Z,4.90
2023-02-19T03:01:15.832Z,4.40
2023-02-19T03:03:45.795Z,4.43
2023-02-19T03:06:15.217Z,5.03
2023-02-19T03:08:48.106Z,4.10
2023-02-19T03:11:34.280Z,3.50
2023-02-19T03:14:23.822Z,2.87
2023-02-19T03:17:10.277Z,3.30
2023-02-19T03:19:42.481Z,4.60
2023-02-19T03:22:14.421Z,2.93
2023-02-19T03:25:02.616Z,2.97
2023-02-19T03:27:31.682Z,5.20
2023-02-19T03:30:03.410Z,2.07
2023-02-19T03:32:34.494Z,4.87
2023-02-19T03:35:05.352Z,2.83
2023-02-19T03:37:35.300Z,3.43
2023-02-19T03:40:03.785Z,2.00
2023-02-19T03:42:38.354Z,3.83
2023-02-19T03:45:24.694Z,3.43
2023-02-19T03:47:56.500Z,4.80
2023-02-19T03:50:26.640Z,3.57
2023-02-19T03:53:00.406Z,4.10
2023-02-19T03:55:31.847Z,3.80
2023-02-19T03:58:02.356Z,3.17
2023-02-19T04:00:33.796Z,2.70
2023-02-19T04:03:07.159Z,4.20
2023-02-19T04:05:39.289Z,4.07
2023-02-19T04:08:11.140Z,4.77
2023-02-19T04:10:40.037Z,4.53
2023-02-19T04:13:11.142Z,3.03
2023-02-19T04:15:42.467Z,4.33
2023-02-19T04:18:14.049Z,6.43
2023-02-19T04:20:44.149Z,2.17
2023-02-19T04:23:12.764Z,2.10
2023-02-19T04:25:43.133Z,2.73
2023-02-19T04:28:11.527Z,3.23
2023-02-19T04:30:40.146Z,3.70
2023-02-19T04:33:08.682Z,3.13
2023-02-19T04:35:38.604Z,3.47
2023-02-19T04:38:06.948Z,3.77
2023-02-19T04:40:35.461Z,2.87
2023-02-19T04:43:03.856Z,2.57
2023-02-19T04:45:32.259Z,3.60
2023-02-19T04:48:00.919Z,3.53
2023-02-19T04:50:29.329Z,2.23
2023-02-19T04:52:59.125Z,4.50
2023-02-19T04:55:27.496Z,2.23
2023-02-19T04:57:55.861Z,4.47
2023-02-19T05:00:24.286Z,4.47
2023-02-19T05:02:52.611Z,4.27
2023-02-19T05:05:21.013Z,3.13
2023-02-19T05:07:49.494Z,6.07
2023-02-19T05:10:19.479Z,4.00
2023-02-19T05:12:47.854Z,2.93
2023-02-19T05:15:16.243Z,4.27
2023-02-19T05:17:44.598Z,2.57
2023-02-19T05:20:14.043Z,3.30
2023-02-19T05:22:42.377Z,3.10
2023-02-19T05:25:10.757Z,3.70
2023-02-19T05:27:40.539Z,3.90
2023-02-19T05:30:09.390Z,1.73
2023-02-19T05:32:38.167Z,3.97
2023-02-19T05:35:06.788Z,3.40
2023-02-19T05:37:35.176Z,3.33
2023-02-19T05:40:03.582Z,1.57
2023-02-19T05:42:31.940Z,3.20
2023-02-19T05:45:01.938Z,1.10
2023-02-19T05:47:30.313Z,2.83
2023-02-19T05:49:58.637Z,0.97
2023-02-19T05:52:27.109Z,1.90
2023-02-19T05:54:55.443Z,1.53
2023-02-19T05:57:23.853Z,2.10
2023-02-19T05:59:52.261Z,0.93
2023-02-19T06:02:22.336Z,2.17
2023-02-19T06:04:50.972Z,6.17
2023-02-19T06:07:19.360Z,2.67
2023-02-19T06:09:47.788Z,1.07
2023-02-19T06:12:16.193Z,3.17
2023-02-19T06:14:44.612Z,2.40
2023-02-19T06:17:13.057Z,1.40
2023-02-19T06:19:42.824Z,3.27
2023-02-19T06:22:11.166Z,2.67
2023-02-19T06:24:39.605Z,3.50
2023-02-19T06:27:08.274Z,3.60
2023-02-19T06:29:38.255Z,0.70
2023-02-19T06:32:06.901Z,3.03
2023-02-19T06:34:35.602Z,4.03
2023-02-19T06:37:05.477Z,3.97
2023-02-19T06:39:33.875Z,1.30
2023-02-19T06:42:02.294Z,1.90
2023-02-19T06:44:30.644Z,2.93
2023-02-19T06:46:59.262Z,2.80
2023-02-19T06:49:27.694Z,3.47
2023-02-19T06:51:56.045Z,2.70
2023-02-19T06:54:26.463Z,2.77
2023-02-19T06:56:57.144Z,1.30
2023-02-19T06:59:25.529Z,2.17
2023-02-19T07:01:54.114Z,3.00
2023-02-19T07:04:22.591Z,3.70
2023-02-19T07:06:50.966Z,4.00
2023-02-19T07:09:19.390Z,2.73
2023-02-19T07:11:49.318Z,2.43
2023-02-19T07:14:18.743Z,4.80
2023-02-19T07:16:47.869Z,5.03
2023-02-19T07:19:16.711Z,3.03
2023-02-19T07:21:45.084Z,2.77
2023-02-19T07:24:13.465Z,2.03
2023-02-19T07:26:41.786Z,3.13
2023-02-19T07:29:12.236Z,2.73
2023-02-19T07:31:40.664Z,1.57
2023-02-19T07:34:09.080Z,4.07
2023-02-19T07:36:37.494Z,3.57
2023-02-19T07:39:06.819Z,3.97
2023-02-19T07:41:36.818Z,2.40
2023-02-19T07:44:05.636Z,3.20
2023-02-19T07:46:35.464Z,3.03
2023-02-19T07:49:03.796Z,4.10
2023-02-19T07:51:32.210Z,5.00
2023-02-19T07:54:00.632Z,2.63
2023-02-19T07:56:29.702Z,2.87
2023-02-19T07:58:58.081Z,4.97
2023-02-19T08:01:40.376Z,4.27
2023-02-19T08:04:10.227Z,1.53
2023-02-19T08:06:38.647Z,1.87
2023-02-19T08:09:07.426Z,2.90
2023-02-19T08:11:53.458Z,1.67
2023-02-19T08:14:21.918Z,2.33
2023-02-19T08:16:50.828Z,2.00
2023-02-19T08:19:20.743Z,4.77
2023-02-19T08:21:50.580Z,4.73
2023-02-19T08:24:19.033Z,3.47
2023-02-19T08:26:47.430Z,3.80
2023-02-19T08:29:15.829Z,2.53
2023-02-19T08:31:44.278Z,2.90
2023-02-19T08:34:12.733Z,1.23
2023-02-19T08:36:42.647Z,1.37
2023-02-19T08:39:10.992Z,0.73
2023-02-19T08:41:39.397Z,0.70
2023-02-19T08:44:07.756Z,0.70
2023-02-19T08:46:36.132Z,0.93
2023-02-19T08:49:04.936Z,1.00
2023-02-19T08:51:33.351Z,2.40
2023-02-19T08:54:05.223Z,0.90
2023-02-19T08:56:33.619Z,0.80
2023-02-19T08:59:02.037Z,1.57
2023-02-19T09:01:30.447Z,0.67
2023-02-19T09:03:58.970Z,0.93
2023-02-19T09:06:27.369Z,1.13
2023-02-19T09:08:55.747Z,1.50
2023-02-19T09:11:25.451Z,1.63
2023-02-19T09:13:53.789Z,1.33
2023-02-19T09:16:22.178Z,0.50
2023-02-19T09:18:50.659Z,0.77
2023-02-19T09:21:19.053Z,1.43
2023-02-19T09:23:47.454Z,1.17
2023-02-19T09:26:15.914Z,1.00
2023-02-19T09:28:45.636Z,1.73
2023-02-19T09:31:16.365Z,0.73
2023-02-19T09:33:45.250Z,0.83
2023-02-19T09:36:13.974Z,0.67
2023-02-19T09:38:42.704Z,0.80
2023-02-19T09:41:15.729Z,1.20
2023-02-19T09:43:44.995Z,0.60
2023-02-19T09:46:21.304Z,0.73
2023-02-19T09:48:49.794Z,1.10
2023-02-19T09:51:18.761Z,1.73
2023-02-19T09:53:50.355Z,1.00
2023-02-19T09:56:18.940Z,0.70
2023-02-19T09:58:49.275Z,1.63
2023-02-19T10:01:19.457Z,0.70
2023-02-19T10:03:48.744Z,0.90
2023-02-19T10:06:21.849Z,2.20
2023-02-19T10:08:51.376Z,1.60
2023-02-19T10:11:20.192Z,1.50
2023-02-19T10:13:50.939Z,1.23
2023-02-19T10:16:22.425Z,2.43
2023-02-19T10:18:50.871Z,1.60
2023-02-19T10:21:20.767Z,2.03
2023-02-19T10:23:51.408Z,2.00
2023-02-19T10:26:20.305Z,1.43
2023-02-19T10:28:48.704Z,2.37
2023-02-19T10:31:20.646Z,1.83
2023-02-19T10:33:52.416Z,2.43
2023-02-19T10:36:31.600Z,2.20
2023-02-19T10:39:01.165Z,1.77
2023-02-19T10:41:29.854Z,1.20
2023-02-19T10:44:01.600Z,1.93
2023-02-19T10:46:31.602Z,1.63
2023-02-19T10:49:02.756Z,2.70
2023-02-19T10:51:36.223Z,1.80
2023-02-19T10:54:06.446Z,1.50
2023-02-19T10:56:34.912Z,1.87
2023-02-19T10:59:16.620Z,1.83
2023-02-19T11:01:55.295Z,1.73
2023-02-19T11:04:25.790Z,1.50
2023-02-19T11:06:54.216Z,1.60
2023-02-19T11:09:26.298Z,2.37
2023-02-19T11:11:55.064Z,1.10
2023-02-19T11:14:24.873Z,1.00
2023-02-19T11:16:56.086Z,0.90
2023-02-19T11:19:30.923Z,1.60
2023-02-19T11:21:59.994Z,1.00
2023-02-19T11:24:33.867Z,1.53
2023-02-19T11:27:03.642Z,1.10
2023-02-19T11:29:35.439Z,0.97
2023-02-19T11:32:22.706Z,1.10
2023-02-19T11:34:52.745Z,1.33
2023-02-19T11:37:22.450Z,0.80
2023-02-19T11:39:51.778Z,0.83
2023-02-19T11:42:29.586Z,1.23
2023-02-19T11:45:07.270Z,1.00
2023-02-19T11:47:52.097Z,1.33
2023-02-19T11:50:24.810Z,0.63
2023-02-19T11:52:58.328Z,0.73
2023-02-19T11:55:39.560Z,0.90
2023-02-19T11:58:15.104Z,0.67
2023-02-19T12:00:46.813Z,0.70
2023-02-19T12:03:30.914Z,0.70
2023-02-19T12:06:08.352Z,0.50
2023-02-19T12:08:53.824Z,0.50
2023-02-19T12:11:30.535Z,0.50
2023-02-19T12:14:08.586Z,0.60
2023-02-19T12:16:41.679Z,1.67
2023-02-19T12:19:27.672Z,0.90
2023-02-19T12:22:03.969Z,0.80
2023-02-19T12:24:43.794Z,0.60
2023-02-19T12:27:19.460Z,0.50
2023-02-19T12:29:54.036Z,0.70
2023-02-19T12:32:25.392Z,0.80
2023-02-19T12:35:04.552Z,0.50
2023-02-19T12:37:39.688Z,0.60
2023-02-19T12:40:16.753Z,0.60
2023-02-19T12:42:51.256Z,0.57
2023-02-19T12:45:21.621Z,0.50
2023-02-19T12:47:57.380Z,0.60
2023-02-19T12:50:26.997Z,0.60
2023-02-19T12:52:59.815Z,0.97
2023-02-19T12:55:29.782Z,0.90
2023-02-19T12:58:01.400Z,0.60
2023-02-19T13:00:31.780Z,0.50
2023-02-19T13:03:02.693Z,0.70
2023-02-19T13:05:38.264Z,0.77
2023-02-19T13:08:09.725Z,0.80
2023-02-19T13:10:42.132Z,0.60
2023-02-19T13:13:14.494Z,0.70
2023-02-19T13:15:44.139Z,0.60
2023-02-19T13:18:15.534Z,0.70
2023-02-19T13:20:46.576Z,0.67
2023-02-19T13:23:35.281Z,0.63
2023-02-19T13:26:12.822Z,0.60
2023-02-19T13:28:48.402Z,0.70
2023-02-19T13:31:31.454Z,0.60
2023-02-19T13:34:05.556Z,0.80
2023-02-19T13:36:35.494Z,0.70
2023-02-19T13:39:08.045Z,0.73
2023-02-19T13:41:39.735Z,0.60
2023-02-19T13:44:09.238Z,0.50
2023-02-19T13:46:39.934Z,0.70
2023-02-19T13:49:26.948Z,0.60
2023-02-19T13:51:56.082Z,0.60
2023-02-19T13:54:27.535Z,0.70
2023-02-19T13:57:14.469Z,0.60
2023-02-19T13:59:43.038Z,0.60
2023-02-19T14:02:13.719Z,0.60
2023-02-19T14:04:43.806Z,1.13
2023-02-19T14:07:22.199Z,1.23
2023-02-19T14:09:52.046Z,0.60
2023-02-19T14:12:21.340Z,0.63
2023-02-19T14:14:50.225Z,0.60
2023-02-19T14:17:28.490Z,0.60
2023-02-19T14:19:58.297Z,0.60
2023-02-19T14:22:45.391Z,0.70
2023-02-19T14:25:24.007Z,0.90
2023-02-19T14:27:53.984Z,0.60
2023-02-19T14:30:24.325Z,0.80
2023-02-19T14:33:02.708Z,0.60
2023-02-19T14:35:41.121Z,0.60
2023-02-19T14:38:12.627Z,0.90
2023-02-19T14:40:42.742Z,0.80
2023-02-19T14:43:13.856Z,0.80
2023-02-19T14:45:43.905Z,0.50
2023-02-19T14:48:19.393Z,0.80
2023-02-19T14:50:49.959Z,0.87
2023-02-19T14:53:18.954Z,1.00
2023-02-19T14:55:48.932Z,1.20
2023-02-19T14:58:19.578Z,0.60
2023-02-19T15:00:48.112Z,0.60
2023-02-19T15:03:27.481Z,0.70
2023-02-19T15:05:57.509Z,0.80
2023-02-19T15:08:29.600Z,0.70
2023-02-19T15:10:59.356Z,0.70
2023-02-19T15:13:29.699Z,0.90
2023-02-19T15:15:58.944Z,0.73
2023-02-19T15:18:28.116Z,1.03
2023-02-19T15:21:01.210Z,0.90
2023-02-19T15:23:31.566Z,0.87
2023-02-19T15:26:01.650Z,0.70
2023-02-19T15:28:32.588Z,0.70
2023-02-19T15:31:08.437Z,0.83
2023-02-19T15:33:36.840Z,0.77
2023-02-19T15:36:07.323Z,0.60
2023-02-19T15:38:36.149Z,0.90
2023-02-19T15:41:06.310Z,0.90
2023-02-19T15:43:36.771Z,0.80
2023-02-19T15:46:06.449Z,1.50
2023-02-19T15:48:39.576Z,0.70
2023-02-19T15:51:12.776Z,1.10
2023-02-19T15:53:44.325Z,0.90
2023-02-19T15:56:18.189Z,1.33
2023-02-19T15:58:48.940Z,1.20
2023-02-19T16:01:19.224Z,0.80
2023-02-19T16:03:47.950Z,1.80
2023-02-19T16:06:17.197Z,1.90
2023-02-19T16:08:46.579Z,0.90
2023-02-19T16:11:32.504Z,1.20
2023-02-19T16:14:19.128Z,0.90
2023-02-19T16:16:49.000Z,0.70
2023-02-19T16:19:22.001Z,1.73
2023-02-19T16:21:50.579Z,0.67
2023-02-19T16:24:23.914Z,0.80
2023-02-19T16:26:53.776Z,1.17
2023-02-19T16:29:23.341Z,1.07
2023-02-19T16:31:52.669Z,1.43
2023-02-19T16:34:30.098Z,0.80
2023-02-19T16:36:58.458Z,0.70
2023-02-19T16:39:26.775Z,1.27
2023-02-19T16:42:16.181Z,0.97
2023-02-19T16:44:46.797Z,1.20
2023-02-19T16:47:30.023Z,1.40
2023-02-19T16:49:59.929Z,0.80
2023-02-19T16:52:28.467Z,1.17
2023-02-19T16:54:56.819Z,1.43
2023-02-19T16:57:25.446Z,1.00
2023-02-19T16:59:55.511Z,1.50
2023-02-19T17:02:25.415Z,1.03
2023-02-19T17:04:55.785Z,0.80
2023-02-19T17:07:24.453Z,1.07
2023-02-19T17:09:53.415Z,1.40
2023-02-19T17:12:22.151Z,1.77
2023-02-19T17:14:50.713Z,1.23
2023-02-19T17:17:20.567Z,0.80
2023-02-19T17:19:48.972Z,1.10
2023-02-19T17:22:17.823Z,1.30
2023-02-19T17:24:48.327Z,0.93
2023-02-19T17:27:16.882Z,0.80
2023-02-19T17:29:45.470Z,0.83
2023-02-19T17:32:14.552Z,1.17
2023-02-19T17:34:44.417Z,0.90
2023-02-19T17:37:12.769Z,0.90
2023-02-19T17:39:41.262Z,1.27
2023-02-19T17:42:09.788Z,0.70
2023-02-19T17:44:38.260Z,0.83
2023-02-19T17:47:06.743Z,0.80
2023-02-19T17:49:36.481Z,0.97
2023-02-19T17:52:06.519Z,0.80
2023-02-19T17:54:35.373Z,0.77
2023-02-19T17:57:03.802Z,0.67
2023-02-19T17:59:32.185Z,0.60
2023-02-19T18:02:01.990Z,0.60
2023-02-19T18:04:30.455Z,0.60
2023-02-19T18:06:58.874Z,1.37
2023-02-19T18:09:28.650Z,0.70
2023-02-19T18:11:57.149Z,0.70
2023-02-19T18:14:25.501Z,0.87
2023-02-19T18:16:53.912Z,0.93
2023-02-19T18:19:22.900Z,0.83
2023-02-19T18:21:51.334Z,5.70
2023-02-19T18:24:19.727Z,0.60
2023-02-19T18:26:49.494Z,0.60
2023-02-19T18:29:18.538Z,0.70
2023-02-19T18:31:47.025Z,0.60
2023-02-19T18:34:17.632Z,0.60
2023-02-19T18:36:46.300Z,1.10
2023-02-19T18:39:14.681Z,0.60
2023-02-19T18:41:43.072Z,1.23
2023-02-19T18:44:12.837Z,1.00
2023-02-19T18:46:41.172Z,0.73
2023-02-19T18:49:09.712Z,0.80
2023-02-19T18:51:38.150Z,0.70
2023-02-19T18:54:07.855Z,0.90
2023-02-19T18:56:42.125Z,0.70
2023-02-19T18:59:10.733Z,1.33
2023-02-19T19:01:40.699Z,0.80
2023-02-19T19:04:09.256Z,1.10
2023-02-19T19:06:37.753Z,1.00
2023-02-19T19:09:06.865Z,0.80
2023-02-19T19:11:35.278Z,0.97
2023-02-19T19:14:03.697Z,1.10
2023-02-19T19:16:32.351Z,1.00
2023-02-19T19:19:02.114Z,0.87
2023-02-19T19:21:30.718Z,1.03
2023-02-19T19:23:59.132Z,1.00
2023-02-19T19:26:27.532Z,1.10
2023-02-19T19:28:55.950Z,1.00
2023-02-19T19:31:25.471Z,1.37
2023-02-19T19:33:54.255Z,0.80
2023-02-19T19:36:24.604Z,1.30
2023-02-19T19:38:53.786Z,0.60
2023-02-19T19:41:22.611Z,1.27
2023-02-19T19:43:50.973Z,0.93
2023-02-19T19:46:20.628Z,1.10
2023-02-19T19:48:49.659Z,1.40
2023-02-19T19:51:18.515Z,0.90
2023-02-19T19:53:49.975Z,1.30
2023-02-19T19:56:18.858Z,1.20
2023-02-19T19:58:49.769Z,1.17
2023-02-19T20:01:21.034Z,0.97
2023-02-19T20:03:51.029Z,1.13
2023-02-19T20:06:26.126Z,0.90
2023-02-19T20:08:56.277Z,1.37
2023-02-19T20:11:24.964Z,0.97
2023-02-19T20:13:53.552Z,1.60
2023-02-19T20:16:25.632Z,1.47
2023-02-19T20:18:54.116Z,1.00
2023-02-19T20:21:22.502Z,1.27
2023-02-19T20:23:50.911Z,1.40
2023-02-19T20:26:30.349Z,1.13
2023-02-19T20:28:59.029Z,1.43
2023-02-19T20:31:27.613Z,1.23
2023-02-19T20:33:56.032Z,1.37
2023-02-19T20:36:28.384Z,0.93
2023-02-19T20:38:56.988Z,1.30
2023-02-19T20:41:25.400Z,1.93
2023-02-19T20:43:55.302Z,1.37
2023-02-19T20:46:23.787Z,2.10
2023-02-19T20:48:52.218Z,2.23
2023-02-19T20:51:20.659Z,2.23
2023-02-19T20:53:49.393Z,2.83
2023-02-19T20:56:17.844Z,1.83
2023-02-19T20:58:46.176Z,2.60
2023-02-19T21:01:15.989Z,3.83
2023-02-19T21:03:44.360Z,2.27
2023-02-19T21:06:12.953Z,8.20
2023-02-19T21:08:41.495Z,2.60
2023-02-19T21:11:10.314Z,2.87
2023-02-19T21:13:38.758Z,3.93
2023-02-19T21:16:07.435Z,4.00
2023-02-19T21:18:37.205Z,1.93
2023-02-19T21:21:05.702Z,1.80
2023-02-19T21:23:34.054Z,2.10
2023-02-19T21:26:03.709Z,4.23
2023-02-19T21:28:32.100Z,4.73
2023-02-19T21:31:00.763Z,3.90
2023-02-19T21:33:29.222Z,4.97
2023-02-19T21:35:59.047Z,5.23
2023-02-19T21:38:27.490Z,2.53
2023-02-19T21:40:55.935Z,3.63
2023-02-19T21:43:24.295Z,5.73
2023-02-19T21:45:52.786Z,4.80
2023-02-19T21:48:21.206Z,4.17
2023-02-19T21:50:49.771Z,5.97
2023-02-19T21:53:19.547Z,4.17
2023-02-19T21:55:58.375Z,5.17
2023-02-19T21:58:27.302Z,4.83
2023-02-19T22:00:56.389Z,5.27
2023-02-19T22:03:26.441Z,6.30
2023-02-19T22:05:55.690Z,6.03
2023-02-19T22:08:25.393Z,7.10
2023-02-19T22:10:53.743Z,5.23
2023-02-19T22:13:22.136Z,3.50
2023-02-19T22:15:50.551Z,6.77
2023-02-19T22:18:19.078Z,6.93
2023-02-19T22:20:47.479Z,5.63
2023-02-19T22:23:15.883Z,4.67
2023-02-19T22:25:45.602Z,5.53
2023-02-19T22:28:14.069Z,5.90
2023-02-19T22:30:43.024Z,6.53
2023-02-19T22:33:11.708Z,4.03
2023-02-19T22:35:40.234Z,4.47
2023-02-19T22:38:08.616Z,3.50
2023-02-19T22:40:37.022Z,6.27
2023-02-19T22:43:06.858Z,4.97
2023-02-19T22:45:35.291Z,2.83
2023-02-19T22:48:03.763Z,3.53
2023-02-19T22:50:32.265Z,3.93
2023-02-19T22:53:00.831Z,2.90
2023-02-19T22:55:29.172Z,3.37
2023-02-19T22:57:57.592Z,2.90
2023-02-19T23:00:27.471Z,3.40
2023-02-19T23:02:55.862Z,4.13
2023-02-19T23:05:25.480Z,3.30
2023-02-19T23:07:54.016Z,4.27
2023-02-19T23:10:23.307Z,2.53
2023-02-19T23:12:51.900Z,3.20
2023-02-19T23:15:20.290Z,4.97
2023-02-19T23:17:50.081Z,3.37
2023-02-19T23:20:18.594Z,4.27
2023-02-19T23:22:46.985Z,3.77
2023-02-19T23:25:15.387Z,3.33
2023-02-19T23:27:43.887Z,4.67
2023-02-19T23:30:12.726Z,7.63
2023-02-19T23:32:41.185Z,3.63
2023-02-19T23:35:10.986Z,3.20
2023-02-19T23:37:39.378Z,4.43
2023-02-19T23:40:08.380Z,3.30
2023-02-19T23:42:37.470Z,3.87
2023-02-19T23:45:05.955Z,5.83
2023-02-19T23:47:34.374Z,4.67
2023-02-19T23:50:02.790Z,5.43
2023-02-19T23:52:32.787Z,4.63
2023-02-19T23:55:01.165Z,5.23
2023-02-19T23:57:29.542Z,6.07
2023-02-19T23:59:57.907Z,3.97
